Amherst, Virginia
Current Conditions -  °F | °C
As of 9:54 PM on Monday 22 Dec 2014 (Local Time) from KLYH Reporting Station
Haze Haze  
Wind Chill: -1°   Ceiling: 500
Heat Index:   Visibility: 2mi
Dew Point:   Wind: 7mph
Humidity: 100%   Direction: 20°NNE
Pressure: 30.09"   Gusts: NA
Location:  37.59°N, 79.05°W
Report Text: KLYH 230254Z 02006KT 2SM BR OVC005 02/02 A3009 RMK AO2 CIG 003V008 SLP194 T00220022 56004
Loading
Personal Weather Stations






























Interactive Weather Map New forecast layout! Learn more

10-Day Weather Forecast

Advertisements
Track Severe Weather on mobile